createdAt,value
2023-03-16T00:00:13.920Z,16.99
2023-03-16T00:03:02.023Z,17.03
2023-03-16T00:05:30.352Z,17.01
2023-03-16T00:07:58.350Z,16.96
2023-03-16T00:10:27.907Z,17.00
2023-03-16T00:12:58.862Z,17.00
2023-03-16T00:15:27.231Z,16.99
2023-03-16T00:17:55.194Z,16.99
2023-03-16T00:20:23.522Z,16.97
2023-03-16T00:22:51.488Z,16.94
2023-03-16T00:25:19.835Z,16.99
2023-03-16T00:27:47.863Z,16.95
2023-03-16T00:30:16.430Z,16.96
2023-03-16T00:32:44.352Z,16.95
2023-03-16T00:35:13.124Z,16.96
2023-03-16T00:37:43.072Z,16.95
2023-03-16T00:40:14.653Z,16.95
2023-03-16T00:42:44.028Z,16.95
2023-03-16T00:45:12.547Z,16.94
2023-03-16T00:47:42.390Z,16.93
2023-03-16T00:50:11.802Z,16.92
2023-03-16T00:52:39.814Z,16.92
2023-03-16T00:55:08.805Z,16.92
2023-03-16T00:57:36.895Z,16.92
2023-03-16T01:00:15.102Z,16.90
2023-03-16T01:02:45.543Z,16.92
2023-03-16T01:05:15.038Z,16.88
2023-03-16T01:07:43.190Z,16.89
2023-03-16T01:10:12.164Z,16.90
2023-03-16T01:12:40.992Z,16.89
2023-03-16T01:15:10.565Z,16.88
2023-03-16T01:17:38.723Z,16.87
2023-03-16T01:20:12.427Z,16.86
2023-03-16T01:22:40.513Z,16.86
2023-03-16T01:25:12.194Z,16.85
2023-03-16T01:27:43.342Z,16.86
2023-03-16T01:30:12.870Z,16.86
2023-03-16T01:32:41.947Z,16.84
2023-03-16T01:35:12.535Z,16.84
2023-03-16T01:37:40.494Z,16.83
2023-03-16T01:40:23.092Z,16.82
2023-03-16T01:43:02.962Z,16.84
2023-03-16T01:46:05.459Z,16.82
2023-03-16T01:48:47.462Z,16.81
2023-03-16T01:51:43.978Z,16.80
2023-03-16T01:54:34.714Z,16.79
2023-03-16T01:57:08.253Z,16.78
2023-03-16T01:59:49.477Z,16.76
2023-03-16T02:02:30.517Z,16.78
2023-03-16T02:05:14.694Z,16.78
2023-03-16T02:07:52.138Z,16.76
2023-03-16T02:10:20.950Z,16.76
2023-03-16T02:12:49.655Z,16.76
2023-03-16T02:15:17.713Z,16.76
2023-03-16T02:17:47.112Z,16.74
2023-03-16T02:20:36.825Z,16.74
2023-03-16T02:23:08.844Z,16.70
2023-03-16T02:25:53.560Z,16.72
2023-03-16T02:28:54.639Z,16.73
2023-03-16T02:31:22.860Z,16.72
2023-03-16T02:33:52.628Z,16.69
2023-03-16T02:36:22.517Z,16.69
2023-03-16T02:38:51.050Z,16.69
2023-03-16T02:41:21.667Z,16.70
2023-03-16T02:44:11.280Z,16.68
2023-03-16T02:46:40.261Z,16.68
2023-03-16T02:49:22.137Z,16.65
2023-03-16T02:51:50.247Z,16.68
2023-03-16T02:54:20.027Z,16.65
2023-03-16T02:56:48.036Z,16.65
2023-03-16T02:59:16.441Z,16.60
2023-03-16T03:01:44.628Z,16.64
2023-03-16T03:04:13.575Z,16.60
2023-03-16T03:06:41.951Z,16.60
2023-03-16T03:09:13.467Z,16.62
2023-03-16T03:11:42.799Z,16.62
2023-03-16T03:14:11.174Z,16.59
2023-03-16T03:16:41.450Z,16.62
2023-03-16T03:19:11.526Z,16.61
2023-03-16T03:21:41.849Z,16.61
2023-03-16T03:24:10.625Z,16.60
2023-03-16T03:26:38.737Z,16.59
2023-03-16T03:29:11.011Z,16.59
2023-03-16T03:31:40.255Z,16.56
2023-03-16T03:34:08.857Z,16.58
2023-03-16T03:36:36.921Z,16.57
2023-03-16T03:39:07.487Z,16.57
2023-03-16T03:41:36.724Z,16.55
2023-03-16T03:44:06.327Z,16.52
2023-03-16T03:46:36.239Z,16.55
2023-03-16T03:49:05.572Z,16.54
2023-03-16T03:51:36.145Z,16.55
2023-03-16T03:54:15.112Z,16.54
2023-03-16T03:56:45.907Z,16.54
2023-03-16T03:59:17.466Z,16.53
2023-03-16T04:02:09.515Z,16.53
2023-03-16T04:04:44.128Z,16.51
2023-03-16T04:07:14.106Z,16.50
2023-03-16T04:09:44.969Z,16.48
2023-03-16T04:12:23.155Z,16.49
2023-03-16T04:14:52.219Z,16.48
2023-03-16T04:17:22.506Z,16.47
2023-03-16T04:19:52.232Z,16.46
2023-03-16T04:22:23.436Z,16.43
2023-03-16T04:24:52.875Z,16.47
2023-03-16T04:27:22.098Z,16.46
2023-03-16T04:29:50.423Z,16.45
2023-03-16T04:32:18.660Z,16.46
2023-03-16T04:34:48.470Z,16.43
2023-03-16T04:37:19.209Z,16.44
2023-03-16T04:39:47.911Z,16.41
2023-03-16T04:42:15.831Z,16.42
2023-03-16T04:44:45.278Z,16.41
2023-03-16T04:47:16.918Z,16.40
2023-03-16T04:49:46.410Z,16.42
2023-03-16T04:52:14.460Z,16.38
2023-03-16T04:54:42.957Z,16.39
2023-03-16T04:57:19.450Z,16.39
2023-03-16T04:59:52.372Z,16.37
2023-03-16T05:02:33.049Z,16.35
2023-03-16T05:05:06.788Z,16.37
2023-03-16T05:07:36.583Z,16.41
2023-03-16T05:10:05.234Z,16.40
2023-03-16T05:12:33.299Z,16.42
2023-03-16T05:15:06.406Z,16.46
2023-03-16T05:17:42.150Z,16.49
2023-03-16T05:20:15.875Z,16.49
2023-03-16T05:22:48.770Z,16.57
2023-03-16T05:25:29.747Z,16.60
2023-03-16T05:28:00.830Z,16.67
2023-03-16T05:30:35.169Z,16.74
2023-03-16T05:33:05.903Z,16.84
2023-03-16T05:35:35.474Z,16.96
2023-03-16T05:38:08.778Z,17.01
2023-03-16T05:40:40.528Z,17.05
2023-03-16T05:43:29.262Z,17.15
2023-03-16T05:45:57.884Z,17.32
2023-03-16T05:48:26.892Z,17.36
2023-03-16T05:50:58.526Z,17.49
2023-03-16T05:53:31.162Z,17.62
2023-03-16T05:56:07.316Z,17.66
2023-03-16T05:58:39.940Z,17.61
2023-03-16T06:01:13.380Z,17.81
2023-03-16T06:03:43.905Z,17.87
2023-03-16T06:06:19.739Z,17.79
2023-03-16T06:08:55.238Z,17.81
2023-03-16T06:11:25.889Z,17.83
2023-03-16T06:13:54.165Z,17.86
2023-03-16T06:16:22.586Z,17.95
2023-03-16T06:18:51.677Z,17.93
2023-03-16T06:21:19.978Z,17.90
2023-03-16T06:23:51.527Z,17.82
2023-03-16T06:26:21.624Z,17.82
2023-03-16T06:28:51.333Z,17.75
2023-03-16T06:31:20.308Z,17.73
2023-03-16T06:33:48.384Z,17.77
2023-03-16T06:36:16.835Z,17.81
2023-03-16T06:38:48.971Z,17.76
2023-03-16T06:41:25.445Z,17.73
2023-03-16T06:43:54.384Z,17.77
2023-03-16T06:46:22.802Z,17.75
2023-03-16T06:48:51.486Z,17.74
2023-03-16T06:51:20.973Z,17.65
2023-03-16T06:53:51.418Z,17.66
2023-03-16T06:56:20.826Z,17.55
2023-03-16T06:58:48.937Z,17.59
2023-03-16T07:01:17.877Z,17.57
2023-03-16T07:03:46.230Z,17.56
2023-03-16T07:06:52.772Z,17.55
2023-03-16T07:09:22.165Z,17.49
2023-03-16T07:11:51.604Z,17.50
2023-03-16T07:14:22.975Z,17.48
2023-03-16T07:16:54.230Z,17.42
2023-03-16T07:19:25.132Z,17.38
2023-03-16T07:21:57.741Z,17.40
2023-03-16T07:24:28.722Z,17.38
2023-03-16T07:26:58.000Z,17.31
2023-03-16T07:29:34.378Z,17.32
2023-03-16T07:32:05.217Z,17.34
2023-03-16T07:34:40.307Z,17.31
2023-03-16T07:37:11.360Z,17.34
2023-03-16T07:39:42.150Z,17.33
2023-03-16T07:42:16.909Z,17.35
2023-03-16T07:45:03.145Z,17.37
2023-03-16T07:47:33.986Z,17.38
2023-03-16T07:50:11.817Z,17.38
2023-03-16T07:52:46.758Z,17.40
2023-03-16T07:55:18.639Z,17.38
2023-03-16T07:57:48.501Z,17.39
2023-03-16T08:00:24.238Z,17.42
2023-03-16T08:02:54.375Z,17.40
2023-03-16T08:05:27.706Z,17.38
2023-03-16T08:08:01.988Z,17.39
2023-03-16T08:10:34.137Z,17.40
2023-03-16T08:13:13.042Z,17.35
2023-03-16T08:16:10.599Z,17.37
2023-03-16T08:18:42.811Z,17.40
2023-03-16T08:21:14.371Z,17.40
2023-03-16T08:23:44.573Z,16.93
2023-03-16T08:26:20.040Z,16.63
2023-03-16T08:28:52.230Z,16.36
2023-03-16T08:31:22.531Z,16.13
2023-03-16T08:33:57.354Z,16.06
2023-03-16T08:36:30.473Z,15.86
2023-03-16T08:39:07.087Z,15.77
2023-03-16T08:41:43.686Z,15.73
2023-03-16T08:44:24.233Z,15.70
2023-03-16T08:46:54.098Z,16.09
2023-03-16T08:49:24.302Z,16.34
2023-03-16T08:52:04.073Z,16.54
2023-03-16T08:54:34.203Z,16.63
2023-03-16T08:57:12.840Z,16.74
2023-03-16T08:59:45.220Z,16.76
2023-03-16T09:02:15.018Z,16.74
2023-03-16T09:04:46.450Z,16.76
2023-03-16T09:07:15.649Z,16.73
2023-03-16T09:09:44.221Z,16.66
2023-03-16T09:12:13.795Z,16.67
2023-03-16T09:14:49.151Z,16.53
2023-03-16T09:17:18.819Z,16.51
2023-03-16T09:19:51.788Z,16.65
2023-03-16T09:22:22.434Z,16.73
2023-03-16T09:24:51.508Z,16.75
2023-03-16T09:27:23.890Z,16.80
2023-03-16T09:29:56.218Z,16.81
2023-03-16T09:32:25.036Z,16.82
2023-03-16T09:34:55.909Z,16.77
2023-03-16T09:37:44.484Z,16.72
2023-03-16T09:40:29.776Z,16.76
2023-03-16T09:43:45.837Z,16.82
2023-03-16T09:46:42.670Z,16.84
2023-03-16T09:49:18.977Z,16.77
2023-03-16T09:51:53.361Z,16.69
2023-03-16T09:54:25.285Z,16.86
2023-03-16T09:56:55.649Z,17.01
2023-03-16T09:59:27.543Z,17.06
2023-03-16T10:02:23.180Z,17.10
2023-03-16T10:05:12.821Z,17.11
2023-03-16T10:07:51.438Z,17.17
2023-03-16T10:10:46.388Z,17.20
2023-03-16T10:13:31.790Z,17.23
2023-03-16T10:16:06.055Z,17.24
2023-03-16T10:18:43.203Z,17.21
2023-03-16T10:21:18.542Z,17.24
2023-03-16T10:23:48.980Z,17.24
2023-03-16T10:26:31.880Z,17.22
2023-03-16T10:29:03.490Z,17.28
2023-03-16T10:31:35.667Z,17.27
2023-03-16T10:34:06.573Z,17.27
2023-03-16T10:36:38.972Z,17.23
2023-03-16T10:39:17.731Z,17.24
2023-03-16T10:41:56.267Z,17.22
2023-03-16T10:44:30.124Z,17.18
2023-03-16T10:47:18.692Z,17.19
2023-03-16T10:49:49.726Z,17.23
2023-03-16T10:52:29.884Z,17.22
2023-03-16T10:55:07.103Z,17.22
2023-03-16T10:57:46.585Z,17.23
2023-03-16T11:00:34.779Z,17.24
2023-03-16T11:03:27.663Z,17.23
2023-03-16T11:06:05.195Z,17.26
2023-03-16T11:08:39.061Z,17.17
2023-03-16T11:11:31.297Z,17.17
2023-03-16T11:14:10.527Z,17.06
2023-03-16T11:16:57.238Z,17.03
2023-03-16T11:20:00.574Z,16.86
2023-03-16T11:22:30.350Z,16.66
2023-03-16T11:25:33.959Z,16.68
2023-03-16T11:28:13.946Z,16.63
2023-03-16T11:30:54.477Z,16.80
2023-03-16T11:33:32.249Z,16.72
2023-03-16T11:36:09.909Z,16.67
2023-03-16T11:39:25.662Z,16.46
2023-03-16T11:42:20.879Z,16.65
2023-03-16T11:45:20.323Z,16.75
2023-03-16T11:48:07.445Z,16.73
2023-03-16T11:51:04.562Z,16.59
2023-03-16T11:53:48.613Z,16.46
2023-03-16T11:56:29.865Z,16.41
2023-03-16T11:59:09.342Z,16.45
2023-03-16T12:02:02.787Z,16.38
2023-03-16T12:05:00.096Z,16.46
2023-03-16T12:08:09.404Z,16.46
2023-03-16T12:11:08.289Z,16.41
2023-03-16T12:13:54.859Z,16.40
2023-03-16T12:17:12.488Z,16.47
2023-03-16T12:19:52.257Z,16.56
2023-03-16T12:22:31.146Z,16.70
2023-03-16T12:25:00.680Z,16.58
2023-03-16T12:27:36.837Z,16.59
2023-03-16T12:30:35.604Z,16.57
2023-03-16T12:33:07.817Z,16.56
2023-03-16T12:35:43.255Z,16.48
2023-03-16T12:38:48.316Z,16.48
2023-03-16T12:41:41.288Z,16.49
2023-03-16T12:44:16.306Z,16.51
2023-03-16T12:47:09.673Z,16.58
2023-03-16T12:49:38.705Z,16.49
2023-03-16T12:52:11.336Z,16.51
2023-03-16T12:54:52.569Z,16.56
2023-03-16T12:57:27.415Z,16.60
2023-03-16T12:59:59.716Z,16.70
2023-03-16T13:02:37.277Z,16.73
2023-03-16T13:05:13.273Z,16.85
2023-03-16T13:07:52.557Z,16.91
2023-03-16T13:10:23.132Z,16.93
2023-03-16T13:12:56.446Z,16.95
2023-03-16T13:15:49.981Z,16.92
2023-03-16T13:18:23.483Z,16.86
2023-03-16T13:21:01.950Z,16.83
2023-03-16T13:23:52.485Z,16.83
2023-03-16T13:26:36.506Z,16.84
2023-03-16T13:29:24.130Z,16.84
2023-03-16T13:31:59.452Z,16.86
2023-03-16T13:34:31.343Z,16.82
2023-03-16T13:37:01.807Z,16.89
2023-03-16T13:39:31.993Z,17.01
2023-03-16T13:42:19.116Z,17.10
2023-03-16T13:44:48.661Z,17.15
2023-03-16T13:47:21.467Z,17.17
2023-03-16T13:49:55.321Z,17.11
2023-03-16T13:52:30.524Z,17.14
2023-03-16T13:55:01.187Z,17.17
2023-03-16T13:57:37.633Z,17.11
2023-03-16T14:00:25.035Z,16.95
2023-03-16T14:02:56.466Z,16.95
2023-03-16T14:05:31.101Z,16.91
2023-03-16T14:08:01.161Z,16.87
2023-03-16T14:10:35.046Z,16.87
2023-03-16T14:13:10.210Z,16.93
2023-03-16T14:15:38.932Z,16.98
2023-03-16T14:18:23.057Z,17.00
2023-03-16T14:20:53.176Z,17.00
2023-03-16T14:23:23.393Z,16.97
2023-03-16T14:25:53.748Z,16.99
2023-03-16T14:28:31.087Z,16.89
2023-03-16T14:31:12.810Z,16.76
2023-03-16T14:33:43.401Z,16.84
2023-03-16T14:36:17.760Z,16.87
2023-03-16T14:38:48.658Z,16.93
2023-03-16T14:41:24.252Z,16.88
2023-03-16T14:43:56.565Z,16.90
2023-03-16T14:46:30.310Z,16.89
2023-03-16T14:49:31.597Z,16.87
2023-03-16T14:52:19.835Z,16.86
2023-03-16T14:54:48.258Z,16.95
2023-03-16T14:57:17.728Z,16.97
2023-03-16T14:59:46.135Z,16.88
2023-03-16T15:02:25.126Z,16.89
2023-03-16T15:04:55.005Z,16.90
2023-03-16T15:07:28.745Z,16.95
2023-03-16T15:10:06.625Z,16.89
2023-03-16T15:12:35.042Z,16.88
2023-03-16T15:15:16.304Z,16.94
2023-03-16T15:17:48.365Z,16.89
2023-03-16T15:20:19.827Z,16.94
2023-03-16T15:22:49.356Z,16.99
2023-03-16T15:25:36.513Z,17.08
2023-03-16T15:28:21.561Z,17.19
2023-03-16T15:30:54.895Z,17.24
2023-03-16T15:33:23.482Z,17.28
2023-03-16T15:35:55.776Z,17.24
2023-03-16T15:38:33.573Z,17.33
2023-03-16T15:41:02.411Z,17.34
2023-03-16T15:43:32.190Z,17.40
2023-03-16T15:46:00.727Z,17.37
2023-03-16T15:48:28.715Z,17.38
2023-03-16T15:51:01.987Z,17.32
2023-03-16T15:53:46.614Z,17.28
2023-03-16T15:56:17.604Z,17.29
2023-03-16T15:58:47.209Z,17.25
2023-03-16T16:01:22.259Z,17.32
2023-03-16T16:03:52.074Z,17.41
2023-03-16T16:06:20.895Z,17.45
2023-03-16T16:08:49.079Z,17.51
2023-03-16T16:11:21.943Z,17.50
2023-03-16T16:13:50.622Z,17.44
2023-03-16T16:16:20.073Z,17.48
2023-03-16T16:18:48.738Z,17.61
2023-03-16T16:21:24.516Z,17.70
2023-03-16T16:23:53.409Z,17.77
2023-03-16T16:26:41.590Z,17.85
2023-03-16T16:29:18.628Z,18.13
2023-03-16T16:31:46.942Z,18.20
2023-03-16T16:34:21.595Z,18.31
2023-03-16T16:36:50.118Z,18.36
2023-03-16T16:39:18.140Z,18.33
2023-03-16T16:41:48.587Z,18.34
2023-03-16T16:44:19.619Z,18.26
2023-03-16T16:46:49.535Z,18.25
2023-03-16T16:49:24.514Z,18.22
2023-03-16T16:51:53.628Z,18.18
2023-03-16T16:54:24.389Z,18.17
2023-03-16T16:56:54.773Z,18.16
2023-03-16T16:59:44.177Z,18.13
2023-03-16T17:02:31.834Z,18.17
2023-03-16T17:05:00.146Z,18.13
2023-03-16T17:07:28.577Z,18.09
2023-03-16T17:09:56.554Z,18.02
2023-03-16T17:12:25.040Z,18.01
2023-03-16T17:14:53.207Z,18.01
2023-03-16T17:17:22.470Z,17.98
2023-03-16T17:19:50.610Z,18.00
2023-03-16T17:22:24.924Z,17.99
2023-03-16T17:24:54.130Z,17.91
2023-03-16T17:27:30.182Z,17.86
2023-03-16T17:29:58.973Z,17.82
2023-03-16T17:32:27.566Z,17.79
2023-03-16T17:34:55.862Z,17.80
2023-03-16T17:37:24.275Z,17.80
2023-03-16T17:39:52.532Z,17.79
2023-03-16T17:42:23.165Z,17.75
2023-03-16T17:44:52.936Z,17.76
2023-03-16T17:47:24.083Z,17.75
2023-03-16T17:49:52.600Z,17.70
2023-03-16T17:52:23.814Z,17.72
2023-03-16T17:54:53.407Z,17.68
2023-03-16T17:57:31.287Z,17.66
2023-03-16T18:00:00.937Z,17.64
2023-03-16T18:02:55.853Z,17.61
2023-03-16T18:05:26.717Z,17.61
2023-03-16T18:07:58.638Z,17.61
2023-03-16T18:10:29.465Z,17.62
2023-03-16T18:13:11.135Z,17.60
2023-03-16T18:15:39.675Z,17.58
2023-03-16T18:18:08.356Z,17.57
2023-03-16T18:20:37.860Z,17.56
2023-03-16T18:23:19.741Z,17.53
2023-03-16T18:25:51.137Z,17.56
2023-03-16T18:28:20.747Z,17.56
2023-03-16T18:30:53.767Z,17.55
2023-03-16T18:33:39.443Z,17.50
2023-03-16T18:36:15.855Z,17.50
2023-03-16T18:38:47.537Z,17.51
2023-03-16T18:41:24.501Z,17.50
2023-03-16T18:43:56.085Z,17.46
2023-03-16T18:46:32.666Z,17.45
2023-03-16T18:49:05.154Z,17.44
2023-03-16T18:51:33.482Z,17.42
2023-03-16T18:54:02.456Z,17.39
2023-03-16T18:56:30.713Z,17.39
2023-03-16T18:58:59.551Z,17.38
2023-03-16T19:01:30.444Z,17.39
2023-03-16T19:04:01.039Z,17.38
2023-03-16T19:06:35.020Z,17.33
2023-03-16T19:09:08.919Z,17.36
2023-03-16T19:11:42.386Z,17.42
2023-03-16T19:14:23.851Z,17.43
2023-03-16T19:16:53.450Z,17.42
2023-03-16T19:19:23.433Z,17.47
2023-03-16T19:21:54.319Z,17.47
2023-03-16T19:24:29.461Z,17.47
2023-03-16T19:26:57.983Z,17.50
2023-03-16T19:29:32.232Z,17.47
2023-03-16T19:32:00.984Z,17.50
2023-03-16T19:34:29.545Z,17.49
2023-03-16T19:36:57.683Z,17.49
2023-03-16T19:39:27.094Z,17.52
2023-03-16T19:41:59.197Z,17.48
2023-03-16T19:44:29.246Z,17.50
2023-03-16T19:46:59.236Z,17.50
2023-03-16T19:49:28.142Z,17.48
2023-03-16T19:51:56.835Z,17.47
2023-03-16T19:54:27.712Z,17.45
2023-03-16T19:56:57.034Z,17.50
2023-03-16T19:59:31.301Z,17.49
2023-03-16T20:02:00.068Z,17.48
2023-03-16T20:04:29.090Z,17.49
2023-03-16T20:06:57.230Z,17.50
2023-03-16T20:09:26.392Z,17.51
2023-03-16T20:11:54.586Z,17.50
2023-03-16T20:14:32.452Z,17.51
2023-03-16T20:17:01.169Z,17.48
2023-03-16T20:19:29.808Z,17.49
2023-03-16T20:21:57.961Z,17.48
2023-03-16T20:24:28.963Z,17.50
2023-03-16T20:26:57.444Z,17.49
2023-03-16T20:29:32.924Z,17.49
2023-03-16T20:32:01.506Z,17.48
2023-03-16T20:34:32.288Z,17.48
2023-03-16T20:37:00.656Z,17.45
2023-03-16T20:39:29.171Z,17.47
2023-03-16T20:41:57.267Z,17.47
2023-03-16T20:44:26.665Z,17.46
2023-03-16T20:46:54.902Z,17.45
2023-03-16T20:49:23.843Z,17.46
2023-03-16T20:51:52.667Z,17.47
2023-03-16T20:54:21.028Z,17.46
2023-03-16T20:56:49.446Z,17.44
2023-03-16T20:59:26.771Z,17.43
2023-03-16T21:01:55.894Z,17.43
2023-03-16T21:04:28.914Z,17.43
2023-03-16T21:06:57.104Z,17.43
2023-03-16T21:09:25.824Z,17.42
2023-03-16T21:11:54.177Z,17.42
2023-03-16T21:14:24.318Z,17.37
2023-03-16T21:16:53.630Z,17.35
2023-03-16T21:19:23.794Z,17.29
2023-03-16T21:21:52.350Z,17.29
2023-03-16T21:24:21.319Z,17.32
2023-03-16T21:26:49.681Z,17.31
2023-03-16T21:29:22.032Z,17.27
2023-03-16T21:31:50.263Z,17.26
2023-03-16T21:34:24.165Z,17.28
2023-03-16T21:36:52.762Z,17.29
2023-03-16T21:39:23.892Z,17.28
2023-03-16T21:41:51.952Z,17.28
2023-03-16T21:44:20.910Z,17.29
2023-03-16T21:46:49.143Z,17.26
2023-03-16T21:49:18.166Z,17.25
2023-03-16T21:51:46.287Z,17.24
2023-03-16T21:54:15.864Z,17.27
2023-03-16T21:56:44.687Z,17.28
2023-03-16T21:59:13.501Z,17.25
2023-03-16T22:01:58.203Z,17.27
2023-03-16T22:04:29.685Z,17.25
2023-03-16T22:06:57.880Z,17.24
2023-03-16T22:09:30.268Z,17.25
2023-03-16T22:11:58.835Z,17.25
2023-03-16T22:14:27.408Z,17.24
2023-03-16T22:16:56.665Z,17.23
2023-03-16T22:19:27.608Z,17.24
2023-03-16T22:21:57.137Z,17.24
2023-03-16T22:24:30.490Z,17.23
2023-03-16T22:26:59.589Z,17.22
2023-03-16T22:29:29.921Z,17.21
2023-03-16T22:32:01.463Z,17.18
2023-03-16T22:34:44.830Z,17.18
2023-03-16T22:37:19.670Z,17.21
2023-03-16T22:39:48.606Z,17.18
2023-03-16T22:42:19.559Z,17.18
2023-03-16T22:44:47.888Z,17.17
2023-03-16T22:47:27.625Z,17.17
2023-03-16T22:49:56.135Z,17.18
2023-03-16T22:52:29.520Z,17.17
2023-03-16T22:54:59.435Z,17.18
2023-03-16T22:57:29.025Z,17.18
2023-03-16T22:59:58.032Z,17.15
2023-03-16T23:02:28.234Z,17.17
2023-03-16T23:04:56.673Z,17.15
2023-03-16T23:07:25.292Z,17.15
2023-03-16T23:09:53.784Z,17.16
2023-03-16T23:12:22.500Z,17.15
2023-03-16T23:14:50.918Z,17.14
2023-03-16T23:17:22.394Z,17.11
2023-03-16T23:19:50.846Z,17.10
2023-03-16T23:22:18.931Z,17.09
2023-03-16T23:24:47.592Z,17.10
2023-03-16T23:27:22.692Z,17.07
2023-03-16T23:29:51.185Z,17.09
2023-03-16T23:32:19.534Z,17.09
2023-03-16T23:34:48.070Z,17.09
2023-03-16T23:37:16.521Z,17.07
2023-03-16T23:39:44.936Z,17.07
2023-03-16T23:42:13.005Z,17.08
2023-03-16T23:44:41.765Z,17.07
2023-03-16T23:47:11.313Z,17.06
2023-03-16T23:49:41.948Z,17.07
2023-03-16T23:52:12.107Z,17.05
2023-03-16T23:54:40.646Z,17.03
2023-03-16T23:57:09.129Z,17.01
2023-03-16T23:59:37.481Z,17.03
